LFLN/SYT METAR and TAF weather

Enter ICAO airport designator
Station Type Date Time Source
LFLN METAR 2020/04/05 07:00 UTC NOAA

LFLN 050700Z AUTO 06004KT CAVOK 06/01 Q1020


Station Type Date Time Source
LFLN Decoded METAR 2020/04/05 07:00 UTC NOAA

Saint-Yan, France (LFLN) 46-25N 004-01E 244M
Apr 05, 2020 - 03:00 AM EDT / 2020.04.05 0700 UTC
Wind: from the ENE (060 degrees) at 5 MPH (4 KT):0
Visibility: greater than 7 mile(s):0
Temperature: 42 F (6 C)
Dew Point: 33 F (1 C)
Relative Humidity: 70%
Pressure (altimeter): 30.12 in. Hg (1020 hPa)
ob: LFLN 050700Z AUTO 06004KT CAVOK 06/01 Q1020
cycle: 7

Station Type Date Time Source
LFLN TAF UTC NOAA

Error!

Example: see airport list